sensor_id;sensor_type;location;lat;lon;timestamp;temperature;humidity
76838;DHT22;65797;47.352;8.164;2023-02-28T00:00:25;-0.80;99.90
76838;DHT22;65797;47.352;8.164;2023-02-28T00:02:52;-0.80;99.90
76838;DHT22;65797;47.352;8.164;2023-02-28T00:05:22;-0.90;99.90
76838;DHT22;65797;47.352;8.164;2023-02-28T00:07:49;-0.80;99.90
76838;DHT22;65797;47.352;8.164;2023-02-28T00:10:20;-0.80;99.90
76838;DHT22;65797;47.352;8.164;2023-02-28T00:12:52;-0.80;99.90
76838;DHT22;65797;47.352;8.164;2023-02-28T00:15:19;-0.80;99.90
76838;DHT22;65797;47.352;8.164;2023-02-28T00:17:45;-0.80;99.90
76838;DHT22;65797;47.352;8.164;2023-02-28T00:20:12;-0.80;99.90
76838;DHT22;65797;47.352;8.164;2023-02-28T00:22:39;-0.80;99.90
76838;DHT22;65797;47.352;8.164;2023-02-28T00:25:06;-0.80;99.90
76838;DHT22;65797;47.352;8.164;2023-02-28T00:27:33;-0.80;99.90
76838;DHT22;65797;47.352;8.164;2023-02-28T00:29:59;-0.80;99.90
76838;DHT22;65797;47.352;8.164;2023-02-28T00:32:24;-0.80;99.90
76838;DHT22;65797;47.352;8.164;2023-02-28T00:34:50;-0.80;99.90
76838;DHT22;65797;47.352;8.164;2023-02-28T00:37:16;-0.80;99.90
76838;DHT22;65797;47.352;8.164;2023-02-28T00:39:42;-0.80;99.90
76838;DHT22;65797;47.352;8.164;2023-02-28T00:42:08;-0.80;99.90
76838;DHT22;65797;47.352;8.164;2023-02-28T00:44:34;-0.80;99.90
76838;DHT22;65797;47.352;8.164;2023-02-28T00:47:00;-0.70;99.90
76838;DHT22;65797;47.352;8.164;2023-02-28T00:49:27;-0.70;99.90
76838;DHT22;65797;47.352;8.164;2023-02-28T00:51:54;-0.70;99.90
76838;DHT22;65797;47.352;8.164;2023-02-28T00:54:20;-0.70;99.90
76838;DHT22;65797;47.352;8.164;2023-02-28T00:56:47;-0.80;99.90
76838;DHT22;65797;47.352;8.164;2023-02-28T00:59:14;-0.80;99.90
76838;DHT22;65797;47.352;8.164;2023-02-28T01:01:40;-0.80;99.90
76838;DHT22;65797;47.352;8.164;2023-02-28T01:04:06;-0.80;99.90
76838;DHT22;65797;47.352;8.164;2023-02-28T01:06:32;-0.80;99.90
76838;DHT22;65797;47.352;8.164;2023-02-28T01:08:58;-0.80;99.90
76838;DHT22;65797;47.352;8.164;2023-02-28T01:11:24;-0.70;99.90
76838;DHT22;65797;47.352;8.164;2023-02-28T01:13:50;-0.70;99.90
76838;DHT22;65797;47.352;8.164;2023-02-28T01:16:17;-0.80;99.90
76838;DHT22;65797;47.352;8.164;2023-02-28T01:18:43;-0.80;99.90
76838;DHT22;65797;47.352;8.164;2023-02-28T01:21:12;-0.80;99.90
76838;DHT22;65797;47.352;8.164;2023-02-28T01:23:38;-0.80;99.90
76838;DHT22;65797;47.352;8.164;2023-02-28T01:26:19;-0.80;99.90
76838;DHT22;65797;47.352;8.164;2023-02-28T01:28:45;-0.80;99.90
76838;DHT22;65797;47.352;8.164;2023-02-28T01:31:11;-0.70;99.90
76838;DHT22;65797;47.352;8.164;2023-02-28T01:33:38;-0.80;99.90
76838;DHT22;65797;47.352;8.164;2023-02-28T01:36:05;-0.70;99.90
76838;DHT22;65797;47.352;8.164;2023-02-28T01:38:31;-0.70;99.90
76838;DHT22;65797;47.352;8.164;2023-02-28T01:40:57;-0.80;99.90
76838;DHT22;65797;47.352;8.164;2023-02-28T01:43:32;-0.70;99.90
76838;DHT22;65797;47.352;8.164;2023-02-28T01:45:59;-0.80;99.90
76838;DHT22;65797;47.352;8.164;2023-02-28T01:48:27;-0.80;99.90
76838;DHT22;65797;47.352;8.164;2023-02-28T01:50:57;-0.80;99.90
76838;DHT22;65797;47.352;8.164;2023-02-28T01:53:34;-0.80;99.90
76838;DHT22;65797;47.352;8.164;2023-02-28T01:56:00;-0.80;99.90
76838;DHT22;65797;47.352;8.164;2023-02-28T01:58:28;-0.80;99.90
76838;DHT22;65797;47.352;8.164;2023-02-28T02:00:54;-0.70;99.90
76838;DHT22;65797;47.352;8.164;2023-02-28T02:03:20;-0.70;99.90
76838;DHT22;65797;47.352;8.164;2023-02-28T02:05:48;-0.70;99.90
76838;DHT22;65797;47.352;8.164;2023-02-28T02:08:26;-0.80;99.90
76838;DHT22;65797;47.352;8.164;2023-02-28T02:10:59;-0.80;99.90
76838;DHT22;65797;47.352;8.164;2023-02-28T02:18:57;-0.80;99.90
76838;DHT22;65797;47.352;8.164;2023-02-28T02:21:47;-0.80;99.90
76838;DHT22;65797;47.352;8.164;2023-02-28T02:30:35;-0.70;99.90
76838;DHT22;65797;47.352;8.164;2023-02-28T02:36:57;-0.80;99.90
76838;DHT22;65797;47.352;8.164;2023-02-28T02:39:27;-0.80;99.90
76838;DHT22;65797;47.352;8.164;2023-02-28T02:41:59;-0.80;99.90
76838;DHT22;65797;47.352;8.164;2023-02-28T02:45:03;-0.80;99.90
76838;DHT22;65797;47.352;8.164;2023-02-28T02:47:32;-0.70;99.90
76838;DHT22;65797;47.352;8.164;2023-02-28T02:50:02;-0.70;99.90
76838;DHT22;65797;47.352;8.164;2023-02-28T02:52:36;-0.70;99.90
76838;DHT22;65797;47.352;8.164;2023-02-28T02:55:04;-0.70;99.90
76838;DHT22;65797;47.352;8.164;2023-02-28T02:57:51;-0.80;99.90
76838;DHT22;65797;47.352;8.164;2023-02-28T03:00:20;-0.80;99.90
76838;DHT22;65797;47.352;8.164;2023-02-28T03:02:49;-0.80;99.90
76838;DHT22;65797;47.352;8.164;2023-02-28T03:05:20;-0.70;99.90
76838;DHT22;65797;47.352;8.164;2023-02-28T03:07:48;-0.80;99.90
76838;DHT22;65797;47.352;8.164;2023-02-28T03:10:35;-0.80;99.90
76838;DHT22;65797;47.352;8.164;2023-02-28T03:16:33;-0.80;99.90
76838;DHT22;65797;47.352;8.164;2023-02-28T03:19:24;-0.80;99.90
76838;DHT22;65797;47.352;8.164;2023-02-28T03:27:11;-0.80;99.90
76838;DHT22;65797;47.352;8.164;2023-02-28T03:29:47;-0.80;99.90
76838;DHT22;65797;47.352;8.164;2023-02-28T03:32:50;-0.80;99.90
76838;DHT22;65797;47.352;8.164;2023-02-28T03:35:23;-0.80;99.90
76838;DHT22;65797;47.352;8.164;2023-02-28T03:37:53;-0.80;99.90
76838;DHT22;65797;47.352;8.164;2023-02-28T03:40:24;-0.80;99.90
76838;DHT22;65797;47.352;8.164;2023-02-28T03:42:56;-0.80;99.90
76838;DHT22;65797;47.352;8.164;2023-02-28T03:45:26;-0.80;99.90
76838;DHT22;65797;47.352;8.164;2023-02-28T03:50:38;-0.80;99.90
76838;DHT22;65797;47.352;8.164;2023-02-28T03:53:22;-0.80;99.90
76838;DHT22;65797;47.352;8.164;2023-02-28T03:56:07;-0.90;99.90
76838;DHT22;65797;47.352;8.164;2023-02-28T03:58:44;-0.80;99.90
76838;DHT22;65797;47.352;8.164;2023-02-28T04:04:00;-0.90;99.90
76838;DHT22;65797;47.352;8.164;2023-02-28T04:06:27;-0.90;99.90
76838;DHT22;65797;47.352;8.164;2023-02-28T04:08:55;-0.80;99.90
76838;DHT22;65797;47.352;8.164;2023-02-28T04:11:27;-0.80;99.90
76838;DHT22;65797;47.352;8.164;2023-02-28T04:13:55;-0.80;99.90
76838;DHT22;65797;47.352;8.164;2023-02-28T04:16:21;-0.80;99.90
76838;DHT22;65797;47.352;8.164;2023-02-28T04:18:47;-0.80;99.90
76838;DHT22;65797;47.352;8.164;2023-02-28T04:21:12;-0.80;99.90
76838;DHT22;65797;47.352;8.164;2023-02-28T04:23:39;-0.80;99.90
76838;DHT22;65797;47.352;8.164;2023-02-28T04:26:05;-0.80;99.90
76838;DHT22;65797;47.352;8.164;2023-02-28T04:28:32;-0.80;99.90
76838;DHT22;65797;47.352;8.164;2023-02-28T04:31:01;-0.80;99.90
76838;DHT22;65797;47.352;8.164;2023-02-28T04:33:27;-0.80;99.90
76838;DHT22;65797;47.352;8.164;2023-02-28T04:36:07;-0.80;99.90
76838;DHT22;65797;47.352;8.164;2023-02-28T04:38:38;-0.80;99.90
76838;DHT22;65797;47.352;8.164;2023-02-28T04:41:04;-0.90;99.90
76838;DHT22;65797;47.352;8.164;2023-02-28T04:43:31;-0.80;99.90
76838;DHT22;65797;47.352;8.164;2023-02-28T04:46:00;-0.90;99.90
76838;DHT22;65797;47.352;8.164;2023-02-28T04:48:31;-0.80;99.90
76838;DHT22;65797;47.352;8.164;2023-02-28T04:51:05;-0.80;99.90
76838;DHT22;65797;47.352;8.164;2023-02-28T04:53:31;-0.80;99.90
76838;DHT22;65797;47.352;8.164;2023-02-28T04:55:58;-0.80;99.90
76838;DHT22;65797;47.352;8.164;2023-02-28T04:58:24;-0.80;99.90
76838;DHT22;65797;47.352;8.164;2023-02-28T05:00:53;-0.80;99.90
76838;DHT22;65797;47.352;8.164;2023-02-28T05:03:20;-0.80;99.90
76838;DHT22;65797;47.352;8.164;2023-02-28T05:05:47;-0.80;99.90
76838;DHT22;65797;47.352;8.164;2023-02-28T05:08:13;-0.80;99.90
76838;DHT22;65797;47.352;8.164;2023-02-28T05:10:39;-0.90;99.90
76838;DHT22;65797;47.352;8.164;2023-02-28T05:13:05;-0.90;99.90
76838;DHT22;65797;47.352;8.164;2023-02-28T05:15:30;-0.90;99.90
76838;DHT22;65797;47.352;8.164;2023-02-28T05:17:56;-0.80;99.90
76838;DHT22;65797;47.352;8.164;2023-02-28T05:20:22;-0.80;99.90
76838;DHT22;65797;47.352;8.164;2023-02-28T05:22:47;-0.80;99.90
76838;DHT22;65797;47.352;8.164;2023-02-28T05:28:05;-0.80;99.90
76838;DHT22;65797;47.352;8.164;2023-02-28T05:30:31;-0.80;99.90
76838;DHT22;65797;47.352;8.164;2023-02-28T05:32:57;-0.80;99.90
76838;DHT22;65797;47.352;8.164;2023-02-28T05:35:24;-0.80;99.90
76838;DHT22;65797;47.352;8.164;2023-02-28T05:37:50;-0.80;99.90
76838;DHT22;65797;47.352;8.164;2023-02-28T05:40:16;-0.80;99.90
76838;DHT22;65797;47.352;8.164;2023-02-28T05:42:42;-0.90;99.90
76838;DHT22;65797;47.352;8.164;2023-02-28T05:45:08;-0.90;99.90
76838;DHT22;65797;47.352;8.164;2023-02-28T05:47:35;-0.80;99.90
76838;DHT22;65797;47.352;8.164;2023-02-28T05:50:01;-0.80;99.90
76838;DHT22;65797;47.352;8.164;2023-02-28T05:52:27;-0.90;99.90
76838;DHT22;65797;47.352;8.164;2023-02-28T05:54:55;-0.90;99.90
76838;DHT22;65797;47.352;8.164;2023-02-28T05:57:21;-0.80;99.90
76838;DHT22;65797;47.352;8.164;2023-02-28T05:59:47;-0.80;99.90
76838;DHT22;65797;47.352;8.164;2023-02-28T06:02:14;-0.80;99.90
76838;DHT22;65797;47.352;8.164;2023-02-28T06:04:41;-0.80;99.90
76838;DHT22;65797;47.352;8.164;2023-02-28T06:07:08;-0.80;99.90
76838;DHT22;65797;47.352;8.164;2023-02-28T06:09:34;-0.80;99.90
76838;DHT22;65797;47.352;8.164;2023-02-28T06:12:00;-0.80;99.90
76838;DHT22;65797;47.352;8.164;2023-02-28T06:14:29;-0.80;99.90
76838;DHT22;65797;47.352;8.164;2023-02-28T06:16:56;-0.80;99.90
76838;DHT22;65797;47.352;8.164;2023-02-28T06:19:22;-0.80;99.90
76838;DHT22;65797;47.352;8.164;2023-02-28T06:21:51;-0.80;99.90
76838;DHT22;65797;47.352;8.164;2023-02-28T06:24:19;-0.80;99.90
76838;DHT22;65797;47.352;8.164;2023-02-28T06:26:45;-0.70;99.90
76838;DHT22;65797;47.352;8.164;2023-02-28T06:49:54;-0.70;99.90
76838;DHT22;65797;47.352;8.164;2023-02-28T06:52:19;-0.70;99.90
76838;DHT22;65797;47.352;8.164;2023-02-28T06:54:45;-0.70;99.90
76838;DHT22;65797;47.352;8.164;2023-02-28T06:57:11;-0.70;99.90
76838;DHT22;65797;47.352;8.164;2023-02-28T06:59:36;-0.70;99.90
76838;DHT22;65797;47.352;8.164;2023-02-28T07:02:02;-0.70;99.90
76838;DHT22;65797;47.352;8.164;2023-02-28T07:04:28;-0.70;99.90
76838;DHT22;65797;47.352;8.164;2023-02-28T07:06:55;-0.60;99.90
76838;DHT22;65797;47.352;8.164;2023-02-28T07:09:22;-0.60;99.90
76838;DHT22;65797;47.352;8.164;2023-02-28T07:11:48;-0.60;99.90
76838;DHT22;65797;47.352;8.164;2023-02-28T07:14:14;-0.60;99.90
76838;DHT22;65797;47.352;8.164;2023-02-28T07:16:40;-0.60;99.90
76838;DHT22;65797;47.352;8.164;2023-02-28T07:19:05;-0.60;99.90
76838;DHT22;65797;47.352;8.164;2023-02-28T07:21:31;-0.50;99.90
76838;DHT22;65797;47.352;8.164;2023-02-28T07:23:57;-0.50;99.90
76838;DHT22;65797;47.352;8.164;2023-02-28T07:26:23;-0.50;99.90
76838;DHT22;65797;47.352;8.164;2023-02-28T07:28:49;-0.50;99.90
76838;DHT22;65797;47.352;8.164;2023-02-28T07:31:16;-0.50;99.90
76838;DHT22;65797;47.352;8.164;2023-02-28T07:33:42;-0.50;99.90
76838;DHT22;65797;47.352;8.164;2023-02-28T07:36:11;-0.50;99.90
76838;DHT22;65797;47.352;8.164;2023-02-28T07:38:42;-0.50;99.90
76838;DHT22;65797;47.352;8.164;2023-02-28T07:41:09;-0.50;99.90
76838;DHT22;65797;47.352;8.164;2023-02-28T07:43:35;-0.50;99.90
76838;DHT22;65797;47.352;8.164;2023-02-28T07:46:07;-0.50;99.90
76838;DHT22;65797;47.352;8.164;2023-02-28T07:48:36;-0.50;99.90
76838;DHT22;65797;47.352;8.164;2023-02-28T07:51:02;-0.50;99.90
76838;DHT22;65797;47.352;8.164;2023-02-28T07:53:28;-0.50;99.90
76838;DHT22;65797;47.352;8.164;2023-02-28T07:55:58;-0.50;99.90
76838;DHT22;65797;47.352;8.164;2023-02-28T07:58:25;-0.50;99.90
76838;DHT22;65797;47.352;8.164;2023-02-28T08:00:51;-0.40;99.90
76838;DHT22;65797;47.352;8.164;2023-02-28T08:03:22;-0.40;99.90
76838;DHT22;65797;47.352;8.164;2023-02-28T08:05:48;-0.40;99.90
76838;DHT22;65797;47.352;8.164;2023-02-28T08:08:15;-0.40;99.90
76838;DHT22;65797;47.352;8.164;2023-02-28T08:10:41;-0.40;99.90
76838;DHT22;65797;47.352;8.164;2023-02-28T08:13:07;-0.40;99.90
76838;DHT22;65797;47.352;8.164;2023-02-28T08:15:33;-0.40;99.90
76838;DHT22;65797;47.352;8.164;2023-02-28T08:17:58;-0.40;99.90
76838;DHT22;65797;47.352;8.164;2023-02-28T08:20:25;-0.40;99.90
76838;DHT22;65797;47.352;8.164;2023-02-28T08:22:51;-0.30;99.90
76838;DHT22;65797;47.352;8.164;2023-02-28T08:25:17;-0.30;99.90
76838;DHT22;65797;47.352;8.164;2023-02-28T08:27:43;-0.30;99.90
76838;DHT22;65797;47.352;8.164;2023-02-28T08:30:13;-0.30;99.90
76838;DHT22;65797;47.352;8.164;2023-02-28T08:32:39;-0.20;99.90
76838;DHT22;65797;47.352;8.164;2023-02-28T08:35:05;-0.20;99.90
76838;DHT22;65797;47.352;8.164;2023-02-28T08:37:32;-0.20;99.90
76838;DHT22;65797;47.352;8.164;2023-02-28T08:39:57;-0.20;99.90
76838;DHT22;65797;47.352;8.164;2023-02-28T08:42:23;-0.20;99.90
76838;DHT22;65797;47.352;8.164;2023-02-28T08:44:49;-0.20;99.90
76838;DHT22;65797;47.352;8.164;2023-02-28T08:47:15;-0.20;99.90
76838;DHT22;65797;47.352;8.164;2023-02-28T08:49:41;-0.20;99.90
76838;DHT22;65797;47.352;8.164;2023-02-28T08:52:07;-0.10;99.90
76838;DHT22;65797;47.352;8.164;2023-02-28T08:54:33;0.00;99.90
76838;DHT22;65797;47.352;8.164;2023-02-28T08:57:00;0.00;99.90
76838;DHT22;65797;47.352;8.164;2023-02-28T08:59:26;0.10;99.90
76838;DHT22;65797;47.352;8.164;2023-02-28T09:01:52;0.10;99.90
76838;DHT22;65797;47.352;8.164;2023-02-28T09:04:17;0.10;99.90
76838;DHT22;65797;47.352;8.164;2023-02-28T09:06:43;0.20;99.90
76838;DHT22;65797;47.352;8.164;2023-02-28T09:09:10;0.30;99.90
76838;DHT22;65797;47.352;8.164;2023-02-28T09:11:36;0.40;99.90
76838;DHT22;65797;47.352;8.164;2023-02-28T09:14:03;0.50;99.90
76838;DHT22;65797;47.352;8.164;2023-02-28T09:16:30;0.50;99.90
76838;DHT22;65797;47.352;8.164;2023-02-28T09:18:56;0.60;99.90
76838;DHT22;65797;47.352;8.164;2023-02-28T09:21:22;0.60;99.90
76838;DHT22;65797;47.352;8.164;2023-02-28T09:23:50;0.50;99.90
76838;DHT22;65797;47.352;8.164;2023-02-28T09:26:21;0.90;99.90
76838;DHT22;65797;47.352;8.164;2023-02-28T09:28:47;0.80;99.90
76838;DHT22;65797;47.352;8.164;2023-02-28T09:31:16;0.90;99.90
76838;DHT22;65797;47.352;8.164;2023-02-28T09:33:42;0.90;99.90
76838;DHT22;65797;47.352;8.164;2023-02-28T09:36:08;0.90;99.90
76838;DHT22;65797;47.352;8.164;2023-02-28T09:38:34;1.00;99.90
76838;DHT22;65797;47.352;8.164;2023-02-28T09:41:03;1.10;99.90
76838;DHT22;65797;47.352;8.164;2023-02-28T09:43:34;1.00;99.90
76838;DHT22;65797;47.352;8.164;2023-02-28T09:48:47;1.00;99.90
76838;DHT22;65797;47.352;8.164;2023-02-28T09:53:51;1.00;99.90
76838;DHT22;65797;47.352;8.164;2023-02-28T09:56:39;1.00;99.90
76838;DHT22;65797;47.352;8.164;2023-02-28T09:59:12;1.10;99.90
76838;DHT22;65797;47.352;8.164;2023-02-28T10:02:17;1.20;99.90
76838;DHT22;65797;47.352;8.164;2023-02-28T10:04:59;1.10;99.90
76838;DHT22;65797;47.352;8.164;2023-02-28T10:08:00;1.10;99.90
76838;DHT22;65797;47.352;8.164;2023-02-28T10:13:01;1.10;99.90
76838;DHT22;65797;47.352;8.164;2023-02-28T10:15:30;1.10;99.90
76838;DHT22;65797;47.352;8.164;2023-02-28T10:18:05;1.10;99.90
76838;DHT22;65797;47.352;8.164;2023-02-28T10:20:38;1.20;99.90
76838;DHT22;65797;47.352;8.164;2023-02-28T10:23:13;1.20;99.90
76838;DHT22;65797;47.352;8.164;2023-02-28T10:25:40;1.20;99.90
76838;DHT22;65797;47.352;8.164;2023-02-28T10:28:10;1.30;99.90
76838;DHT22;65797;47.352;8.164;2023-02-28T10:30:43;1.30;99.90
76838;DHT22;65797;47.352;8.164;2023-02-28T10:35:49;1.40;99.90
76838;DHT22;65797;47.352;8.164;2023-02-28T10:38:25;1.30;99.90
76838;DHT22;65797;47.352;8.164;2023-02-28T10:40:51;1.20;99.90
76838;DHT22;65797;47.352;8.164;2023-02-28T10:58:31;1.60;99.90
76838;DHT22;65797;47.352;8.164;2023-02-28T11:00:59;1.60;99.90
76838;DHT22;65797;47.352;8.164;2023-02-28T11:03:32;1.60;99.90
76838;DHT22;65797;47.352;8.164;2023-02-28T11:06:03;1.80;99.90
76838;DHT22;65797;47.352;8.164;2023-02-28T11:08:30;1.80;99.90
76838;DHT22;65797;47.352;8.164;2023-02-28T11:10:58;1.90;99.90
76838;DHT22;65797;47.352;8.164;2023-02-28T11:13:29;1.90;99.90
76838;DHT22;65797;47.352;8.164;2023-02-28T11:15:57;1.70;99.90
76838;DHT22;65797;47.352;8.164;2023-02-28T11:21:06;1.90;99.90
76838;DHT22;65797;47.352;8.164;2023-02-28T11:23:34;1.90;99.90
76838;DHT22;65797;47.352;8.164;2023-02-28T11:26:03;1.80;99.90
76838;DHT22;65797;47.352;8.164;2023-02-28T11:28:37;1.60;99.90
76838;DHT22;65797;47.352;8.164;2023-02-28T11:33:32;1.80;99.90
76838;DHT22;65797;47.352;8.164;2023-02-28T11:36:07;1.70;99.90
76838;DHT22;65797;47.352;8.164;2023-02-28T11:38:35;1.80;99.90
76838;DHT22;65797;47.352;8.164;2023-02-28T11:41:30;1.50;99.90
76838;DHT22;65797;47.352;8.164;2023-02-28T11:51:59;1.60;99.90
76838;DHT22;65797;47.352;8.164;2023-02-28T12:05:49;1.90;99.90
76838;DHT22;65797;47.352;8.164;2023-02-28T12:13:44;1.70;99.90
76838;DHT22;65797;47.352;8.164;2023-02-28T12:18:57;1.70;99.90
76838;DHT22;65797;47.352;8.164;2023-02-28T12:21:52;1.60;99.90
76838;DHT22;65797;47.352;8.164;2023-02-28T12:27:15;1.70;99.90
76838;DHT22;65797;47.352;8.164;2023-02-28T12:29:49;1.80;99.90
76838;DHT22;65797;47.352;8.164;2023-02-28T12:37:25;1.80;99.90
76838;DHT22;65797;47.352;8.164;2023-02-28T12:40:03;1.70;99.90
76838;DHT22;65797;47.352;8.164;2023-02-28T12:42:38;1.70;99.90
76838;DHT22;65797;47.352;8.164;2023-02-28T12:45:17;1.70;99.90
76838;DHT22;65797;47.352;8.164;2023-02-28T12:47:45;1.60;99.90
76838;DHT22;65797;47.352;8.164;2023-02-28T12:50:15;1.50;99.90
76838;DHT22;65797;47.352;8.164;2023-02-28T12:58:37;1.40;99.90
76838;DHT22;65797;47.352;8.164;2023-02-28T13:09:53;1.30;99.90
76838;DHT22;65797;47.352;8.164;2023-02-28T13:12:21;1.30;99.90
76838;DHT22;65797;47.352;8.164;2023-02-28T13:15:07;1.20;99.90
76838;DHT22;65797;47.352;8.164;2023-02-28T13:17:39;1.20;99.90
76838;DHT22;65797;47.352;8.164;2023-02-28T13:20:34;1.10;99.90
76838;DHT22;65797;47.352;8.164;2023-02-28T13:23:01;1.20;99.90
76838;DHT22;65797;47.352;8.164;2023-02-28T13:28:03;1.30;99.90
76838;DHT22;65797;47.352;8.164;2023-02-28T13:33:34;1.40;99.90
76838;DHT22;65797;47.352;8.164;2023-02-28T13:36:25;1.40;99.90
76838;DHT22;65797;47.352;8.164;2023-02-28T13:38:58;1.20;99.90
76838;DHT22;65797;47.352;8.164;2023-02-28T13:44:05;1.20;99.90
76838;DHT22;65797;47.352;8.164;2023-02-28T13:46:33;1.20;99.90
76838;DHT22;65797;47.352;8.164;2023-02-28T13:49:19;1.30;99.90
76838;DHT22;65797;47.352;8.164;2023-02-28T13:51:47;1.20;99.90
76838;DHT22;65797;47.352;8.164;2023-02-28T14:00:55;1.10;99.90
76838;DHT22;65797;47.352;8.164;2023-02-28T14:03:48;1.10;99.90
76838;DHT22;65797;47.352;8.164;2023-02-28T14:06:25;1.00;99.90
76838;DHT22;65797;47.352;8.164;2023-02-28T14:11:41;0.80;99.90
76838;DHT22;65797;47.352;8.164;2023-02-28T14:14:09;0.90;99.90
76838;DHT22;65797;47.352;8.164;2023-02-28T14:21:39;1.00;99.90
76838;DHT22;65797;47.352;8.164;2023-02-28T14:27:32;1.00;99.90
76838;DHT22;65797;47.352;8.164;2023-02-28T14:30:29;0.90;99.90
76838;DHT22;65797;47.352;8.164;2023-02-28T14:33:19;0.90;99.90
76838;DHT22;65797;47.352;8.164;2023-02-28T14:36:17;0.90;99.90
76838;DHT22;65797;47.352;8.164;2023-02-28T14:39:14;1.00;99.90
76838;DHT22;65797;47.352;8.164;2023-02-28T14:41:42;1.10;99.90
76838;DHT22;65797;47.352;8.164;2023-02-28T14:44:25;1.00;99.90
76838;DHT22;65797;47.352;8.164;2023-02-28T14:47:11;1.00;99.90
76838;DHT22;65797;47.352;8.164;2023-02-28T14:49:45;0.90;99.90
76838;DHT22;65797;47.352;8.164;2023-02-28T14:52:15;0.90;99.90
76838;DHT22;65797;47.352;8.164;2023-02-28T14:54:43;1.00;99.90
76838;DHT22;65797;47.352;8.164;2023-02-28T14:57:39;0.90;99.90
76838;DHT22;65797;47.352;8.164;2023-02-28T15:00:27;0.90;99.90
76838;DHT22;65797;47.352;8.164;2023-02-28T15:02:58;0.80;99.90
76838;DHT22;65797;47.352;8.164;2023-02-28T15:05:33;0.90;99.90
76838;DHT22;65797;47.352;8.164;2023-02-28T15:08:12;0.80;99.90
76838;DHT22;65797;47.352;8.164;2023-02-28T15:10:42;0.90;99.90
76838;DHT22;65797;47.352;8.164;2023-02-28T15:13:13;0.80;99.90
76838;DHT22;65797;47.352;8.164;2023-02-28T15:15:44;0.90;99.90
76838;DHT22;65797;47.352;8.164;2023-02-28T15:18:36;0.90;99.90
76838;DHT22;65797;47.352;8.164;2023-02-28T15:21:07;0.80;99.90
76838;DHT22;65797;47.352;8.164;2023-02-28T15:23:35;0.90;99.90
76838;DHT22;65797;47.352;8.164;2023-02-28T15:26:02;0.80;99.90
76838;DHT22;65797;47.352;8.164;2023-02-28T15:28:28;0.80;99.90
76838;DHT22;65797;47.352;8.164;2023-02-28T15:30:56;0.70;99.90
76838;DHT22;65797;47.352;8.164;2023-02-28T15:33:25;0.70;99.90
76838;DHT22;65797;47.352;8.164;2023-02-28T15:35:51;0.70;99.90
76838;DHT22;65797;47.352;8.164;2023-02-28T15:38:24;0.70;99.90
76838;DHT22;65797;47.352;8.164;2023-02-28T15:40:56;0.80;99.90
76838;DHT22;65797;47.352;8.164;2023-02-28T15:43:26;0.70;99.90
76838;DHT22;65797;47.352;8.164;2023-02-28T15:46:10;0.70;99.90
76838;DHT22;65797;47.352;8.164;2023-02-28T15:51:22;0.60;99.90
76838;DHT22;65797;47.352;8.164;2023-02-28T15:53:54;0.60;99.90
76838;DHT22;65797;47.352;8.164;2023-02-28T15:56:30;0.60;99.90
76838;DHT22;65797;47.352;8.164;2023-02-28T15:58:59;0.70;99.90
76838;DHT22;65797;47.352;8.164;2023-02-28T16:01:28;0.70;99.90
76838;DHT22;65797;47.352;8.164;2023-02-28T16:04:07;0.70;99.90
76838;DHT22;65797;47.352;8.164;2023-02-28T16:09:04;0.70;99.90
76838;DHT22;65797;47.352;8.164;2023-02-28T16:11:34;0.60;99.90
76838;DHT22;65797;47.352;8.164;2023-02-28T16:14:01;0.60;99.90
76838;DHT22;65797;47.352;8.164;2023-02-28T16:16:28;0.70;99.90
76838;DHT22;65797;47.352;8.164;2023-02-28T16:18:54;0.70;99.90
76838;DHT22;65797;47.352;8.164;2023-02-28T16:21:20;0.70;99.90
76838;DHT22;65797;47.352;8.164;2023-02-28T16:23:46;0.70;99.90
76838;DHT22;65797;47.352;8.164;2023-02-28T16:26:22;0.70;99.90
76838;DHT22;65797;47.352;8.164;2023-02-28T16:28:49;0.50;99.90
76838;DHT22;65797;47.352;8.164;2023-02-28T16:31:16;0.60;99.90
76838;DHT22;65797;47.352;8.164;2023-02-28T16:33:44;0.60;99.90
76838;DHT22;65797;47.352;8.164;2023-02-28T16:36:21;0.60;99.90
76838;DHT22;65797;47.352;8.164;2023-02-28T16:38:50;0.60;99.90
76838;DHT22;65797;47.352;8.164;2023-02-28T16:41:22;0.50;99.90
76838;DHT22;65797;47.352;8.164;2023-02-28T16:43:51;0.50;99.90
76838;DHT22;65797;47.352;8.164;2023-02-28T16:46:18;0.50;99.90
76838;DHT22;65797;47.352;8.164;2023-02-28T16:48:45;0.60;99.90
76838;DHT22;65797;47.352;8.164;2023-02-28T16:51:15;0.60;99.90
76838;DHT22;65797;47.352;8.164;2023-02-28T16:53:43;0.60;99.90
76838;DHT22;65797;47.352;8.164;2023-02-28T16:56:22;0.60;99.90
76838;DHT22;65797;47.352;8.164;2023-02-28T16:58:49;0.60;99.90
76838;DHT22;65797;47.352;8.164;2023-02-28T17:01:16;0.60;99.90
76838;DHT22;65797;47.352;8.164;2023-02-28T17:03:42;0.60;99.90
76838;DHT22;65797;47.352;8.164;2023-02-28T17:06:26;0.60;99.90
76838;DHT22;65797;47.352;8.164;2023-02-28T17:08:54;0.60;99.90
76838;DHT22;65797;47.352;8.164;2023-02-28T17:11:20;0.60;99.90
76838;DHT22;65797;47.352;8.164;2023-02-28T17:13:46;0.60;99.90
76838;DHT22;65797;47.352;8.164;2023-02-28T17:16:22;0.60;99.90
76838;DHT22;65797;47.352;8.164;2023-02-28T17:18:50;0.60;99.90
76838;DHT22;65797;47.352;8.164;2023-02-28T17:21:17;0.60;99.90
76838;DHT22;65797;47.352;8.164;2023-02-28T17:23:43;0.60;99.90
76838;DHT22;65797;47.352;8.164;2023-02-28T17:26:15;0.60;99.90
76838;DHT22;65797;47.352;8.164;2023-02-28T17:28:43;0.60;99.90
76838;DHT22;65797;47.352;8.164;2023-02-28T17:31:09;0.60;99.90
76838;DHT22;65797;47.352;8.164;2023-02-28T17:33:35;0.60;99.90
76838;DHT22;65797;47.352;8.164;2023-02-28T17:36:01;0.60;99.90
76838;DHT22;65797;47.352;8.164;2023-02-28T17:38:27;0.60;99.90
76838;DHT22;65797;47.352;8.164;2023-02-28T17:40:52;0.60;99.90
76838;DHT22;65797;47.352;8.164;2023-02-28T17:43:26;0.60;99.90
76838;DHT22;65797;47.352;8.164;2023-02-28T17:45:52;0.60;99.90
76838;DHT22;65797;47.352;8.164;2023-02-28T17:48:18;0.70;99.90
76838;DHT22;65797;47.352;8.164;2023-02-28T17:50:44;0.70;99.90
76838;DHT22;65797;47.352;8.164;2023-02-28T17:53:09;0.70;99.90
76838;DHT22;65797;47.352;8.164;2023-02-28T17:55:35;0.70;99.90
76838;DHT22;65797;47.352;8.164;2023-02-28T17:58:02;0.60;99.90
76838;DHT22;65797;47.352;8.164;2023-02-28T18:00:28;0.70;99.90
76838;DHT22;65797;47.352;8.164;2023-02-28T18:02:54;0.70;99.90
76838;DHT22;65797;47.352;8.164;2023-02-28T18:05:23;0.70;99.90
76838;DHT22;65797;47.352;8.164;2023-02-28T18:07:49;0.70;99.90
76838;DHT22;65797;47.352;8.164;2023-02-28T18:10:17;0.60;99.90
76838;DHT22;65797;47.352;8.164;2023-02-28T18:12:48;0.70;99.90
76838;DHT22;65797;47.352;8.164;2023-02-28T18:15:14;0.70;99.90
76838;DHT22;65797;47.352;8.164;2023-02-28T18:17:40;0.70;99.90
76838;DHT22;65797;47.352;8.164;2023-02-28T18:20:07;0.60;99.90
76838;DHT22;65797;47.352;8.164;2023-02-28T18:22:37;0.60;99.90
76838;DHT22;65797;47.352;8.164;2023-02-28T18:25:04;0.60;99.90
76838;DHT22;65797;47.352;8.164;2023-02-28T18:27:30;0.60;99.90
76838;DHT22;65797;47.352;8.164;2023-02-28T18:29:56;0.60;99.90
76838;DHT22;65797;47.352;8.164;2023-02-28T18:32:22;0.50;99.90
76838;DHT22;65797;47.352;8.164;2023-02-28T18:34:47;0.50;99.90
76838;DHT22;65797;47.352;8.164;2023-02-28T18:37:13;0.50;99.90
76838;DHT22;65797;47.352;8.164;2023-02-28T18:39:40;0.50;99.90